Revere, Pennsylvania
Current Conditions -  °F | °C
As of 12:54 AM on Sunday 26 Oct 2014 (Local Time) from KDYL Reporting Station
Overcast Overcast  
Wind Chill: 59°   Ceiling: 8000
Heat Index: 59°   Visibility: 10mi
Dew Point: 45°   Wind: 9mph
Humidity: 60%   Direction: 240°WSW
Pressure: 29.59"   Gusts: NA
Location:  40.52°N, 75.16°W
Report Text: KDYL 260454Z AUTO 24008KT 10SM OVC080 15/07 A2959 RMK AO2 SLP019 T01500072 401940033 $
Loading
Personal Weather Stations






























Interactive Weather Map
Tropical Storm Tracking
New forecast layout! Learn more

10-Day Weather Forecast

Advertisements
Track Severe Weather on mobile